Kem'- Port, Russia
Current Conditions -  °F | °C
As of 7:20 PM on Thursday 23 Oct 2014 (Local Time) from EFKS Reporting Station
Clear Clear  
Wind Chill:   Ceiling: Unl
Heat Index: 12°   Visibility: 6mi
Dew Point:   Wind: 8mph
Humidity: 85%   Direction: 160°SSE
Pressure: 30.5"   Gusts: NA
Location:  64.98°N, 34.8°E
Report Text: EFKS 231620Z AUTO 16007KT CAVOK M11/M13 Q1033
Loading
Personal Weather Stations






























Interactive Weather Map
Tropical Storm Tracking
New forecast layout! Learn more

10-Day Weather Forecast

Advertisements
Track Severe Weather on mobile